createdAt,value
2023-09-08T00:01:18.109Z,78.32
2023-09-08T00:03:49.958Z,77.25
2023-09-08T00:06:21.879Z,86.32
2023-09-08T00:08:52.836Z,72.75
2023-09-08T00:11:23.149Z,66.82
2023-09-08T00:13:53.656Z,74.60
2023-09-08T00:16:24.596Z,84.80
2023-09-08T00:18:56.057Z,69.22
2023-09-08T00:21:27.915Z,70.60
2023-09-08T00:23:59.961Z,74.38
2023-09-08T00:26:30.240Z,79.28
2023-09-08T00:29:01.029Z,67.25
2023-09-08T00:31:33.083Z,56.05
2023-09-08T00:34:05.026Z,64.47
2023-09-08T00:36:36.788Z,83.43
2023-09-08T00:39:08.039Z,78.35
2023-09-08T00:41:39.845Z,81.15
2023-09-08T00:44:11.535Z,79.75
2023-09-08T00:46:43.928Z,81.00
2023-09-08T00:49:14.781Z,72.85
2023-09-08T00:51:46.075Z,83.72
2023-09-08T00:54:18.813Z,85.97
2023-09-08T00:56:51.531Z,94.20
2023-09-08T00:59:23.537Z,84.28
2023-09-08T01:01:54.333Z,95.22
2023-09-08T01:04:24.880Z,77.40
2023-09-08T01:06:56.275Z,95.38
2023-09-08T01:09:27.551Z,105.00
2023-09-08T01:12:03.395Z,122.97
2023-09-08T01:14:35.806Z,100.30
2023-09-08T01:17:07.478Z,71.07
2023-09-08T01:19:38.206Z,65.70
2023-09-08T01:22:24.685Z,73.30
2023-09-08T01:25:25.437Z,89.18
2023-09-08T01:27:58.972Z,75.80
2023-09-08T01:30:32.205Z,63.17
2023-09-08T01:33:03.964Z,57.85
2023-09-08T01:35:35.797Z,65.35
2023-09-08T01:38:06.535Z,55.45
2023-09-08T01:40:37.386Z,63.03
2023-09-08T01:43:08.698Z,63.40
2023-09-08T01:45:40.453Z,74.50
2023-09-08T01:48:10.856Z,60.90
2023-09-08T01:50:41.669Z,75.28
2023-09-08T01:53:12.300Z,83.50
2023-09-08T01:55:44.230Z,76.30
2023-09-08T01:58:15.477Z,92.60
2023-09-08T02:00:45.982Z,90.32
2023-09-08T02:03:16.758Z,108.47
2023-09-08T02:05:48.750Z,102.50
2023-09-08T02:08:19.391Z,97.35
2023-09-08T02:10:49.692Z,98.05
2023-09-08T02:13:20.986Z,113.10
2023-09-08T02:15:52.608Z,117.60
2023-09-08T02:18:22.956Z,124.60
2023-09-08T02:20:53.269Z,127.22
2023-09-08T02:23:24.028Z,142.45
2023-09-08T02:25:54.481Z,135.75
2023-09-08T02:28:25.142Z,127.53
2023-09-08T02:30:57.615Z,150.38
2023-09-08T02:33:31.221Z,158.00
2023-09-08T02:36:10.761Z,139.40
2023-09-08T02:38:43.434Z,157.93
2023-09-08T02:41:14.157Z,146.40
2023-09-08T02:43:44.569Z,145.38
2023-09-08T02:46:15.705Z,135.43
2023-09-08T02:48:47.352Z,117.18
2023-09-08T02:51:18.817Z,123.85
2023-09-08T02:53:49.410Z,109.80
2023-09-08T02:56:20.633Z,116.53
2023-09-08T02:58:51.217Z,94.85
2023-09-08T03:01:25.802Z,86.15
2023-09-08T03:03:57.325Z,87.00
2023-09-08T03:06:28.798Z,97.18
2023-09-08T03:09:01.277Z,86.22
2023-09-08T03:11:33.040Z,104.75
2023-09-08T03:14:03.790Z,99.03
2023-09-08T03:16:34.554Z,106.65
2023-09-08T03:19:04.927Z,121.15
2023-09-08T03:21:36.160Z,132.63
2023-09-08T03:24:09.486Z,126.97
2023-09-08T03:26:42.392Z,128.15
2023-09-08T03:29:13.464Z,104.38
2023-09-08T03:31:44.742Z,142.57
2023-09-08T03:34:17.336Z,112.55
2023-09-08T03:36:49.427Z,96.78
2023-09-08T03:39:22.821Z,94.38
2023-09-08T03:41:53.783Z,102.18
2023-09-08T03:44:25.565Z,99.15
2023-09-08T03:46:57.778Z,79.03
2023-09-08T03:49:28.197Z,108.55
2023-09-08T03:51:58.211Z,113.05
2023-09-08T03:54:30.088Z,125.57
2023-09-08T03:57:00.588Z,122.90
2023-09-08T03:59:32.495Z,117.95
2023-09-08T04:02:04.490Z,100.40
2023-09-08T04:04:34.945Z,125.03
2023-09-08T04:07:05.786Z,97.97
2023-09-08T04:09:36.078Z,112.03
2023-09-08T04:12:08.249Z,99.50
2023-09-08T04:14:39.193Z,101.15
2023-09-08T04:17:10.696Z,120.03
2023-09-08T04:19:41.339Z,115.78
2023-09-08T04:22:12.659Z,117.03
2023-09-08T04:24:43.118Z,73.38
2023-09-08T04:27:15.729Z,56.45
2023-09-08T04:29:46.403Z,59.22
2023-09-08T04:32:16.711Z,133.90
2023-09-08T04:34:47.535Z,246.63
2023-09-08T04:37:19.384Z,211.52
2023-09-08T04:39:49.921Z,135.95
2023-09-08T04:42:20.295Z,129.13
2023-09-08T04:44:50.835Z,133.73
2023-09-08T04:47:21.272Z,101.80
2023-09-08T04:49:52.531Z,162.35
2023-09-08T04:52:23.266Z,119.15
2023-09-08T04:54:53.840Z,114.85
2023-09-08T04:57:24.385Z,123.70
2023-09-08T05:02:30.795Z,156.00
2023-09-08T05:05:03.193Z,149.32
2023-09-08T05:07:34.552Z,117.82
2023-09-08T05:10:05.551Z,183.43
2023-09-08T05:12:38.371Z,149.75
2023-09-08T05:15:13.919Z,131.60
2023-09-08T05:17:46.382Z,110.45
2023-09-08T05:20:17.962Z,127.95
2023-09-08T05:22:49.426Z,114.32
2023-09-08T05:25:21.755Z,99.10
2023-09-08T05:27:52.559Z,106.68
2023-09-08T05:30:23.983Z,86.75
2023-09-08T05:32:54.866Z,93.82
2023-09-08T05:35:25.412Z,150.50
2023-09-08T05:37:55.441Z,128.50
2023-09-08T05:40:27.012Z,117.72
2023-09-08T05:42:57.509Z,103.40
2023-09-08T05:45:28.311Z,100.22
2023-09-08T05:47:59.923Z,116.80
2023-09-08T05:50:31.606Z,106.25
2023-09-08T05:53:02.752Z,116.60
2023-09-08T05:55:32.899Z,83.07
2023-09-08T05:58:03.529Z,71.07
2023-09-08T06:00:33.838Z,58.20
2023-09-08T06:03:05.014Z,40.42
2023-09-08T06:05:36.708Z,38.38
2023-09-08T06:08:08.903Z,37.42
2023-09-08T06:10:43.181Z,30.98
2023-09-08T06:13:13.792Z,30.45
2023-09-08T06:15:46.684Z,25.75
2023-09-08T06:18:17.373Z,77.65
2023-09-08T06:20:49.844Z,128.85
2023-09-08T06:23:24.682Z,137.30
2023-09-08T06:26:02.831Z,141.95
2023-09-08T06:28:36.840Z,136.38
2023-09-08T06:31:07.718Z,152.27
2023-09-08T06:33:40.070Z,141.25
2023-09-08T06:36:10.588Z,140.15
2023-09-08T06:38:40.981Z,170.05
2023-09-08T06:41:16.352Z,155.75
2023-09-08T06:43:47.794Z,152.13
2023-09-08T06:46:24.127Z,153.25
2023-09-08T06:48:54.817Z,155.68
2023-09-08T06:51:24.926Z,142.38
2023-09-08T06:53:59.718Z,167.63
2023-09-08T06:56:35.910Z,120.22
2023-09-08T06:59:06.722Z,119.60
2023-09-08T07:01:38.153Z,139.98
2023-09-08T07:04:10.602Z,130.60
2023-09-08T07:06:44.306Z,130.05
2023-09-08T07:09:16.678Z,126.07
2023-09-08T07:11:47.399Z,126.85
2023-09-08T07:14:17.793Z,143.98
2023-09-08T07:16:47.909Z,135.23
2023-09-08T07:19:18.700Z,142.60
2023-09-08T07:21:49.134Z,130.48
2023-09-08T07:24:19.762Z,127.03
2023-09-08T07:26:50.166Z,124.88
2023-09-08T07:29:21.090Z,141.05
2023-09-08T07:31:52.694Z,122.88
2023-09-08T07:34:24.235Z,121.43
2023-09-08T07:36:54.687Z,107.35
2023-09-08T07:39:25.000Z,113.18
2023-09-08T07:41:56.080Z,97.05
2023-09-08T07:44:26.888Z,87.18
2023-09-08T07:46:59.090Z,97.65
2023-09-08T07:49:29.612Z,115.30
2023-09-08T07:52:02.998Z,124.03
2023-09-08T07:54:33.976Z,105.07
2023-09-08T07:57:05.537Z,109.75
2023-09-08T07:59:38.088Z,75.63
2023-09-08T08:02:09.719Z,97.90
2023-09-08T08:04:40.546Z,89.85
2023-09-08T08:07:10.793Z,63.80
2023-09-08T08:09:41.723Z,100.55
2023-09-08T08:12:11.978Z,60.40
2023-09-08T08:14:43.138Z,66.43
2023-09-08T08:17:13.888Z,48.13
2023-09-08T08:19:47.734Z,50.67
2023-09-08T08:22:18.156Z,47.47
2023-09-08T08:24:49.355Z,39.47
2023-09-08T08:27:19.816Z,38.60
2023-09-08T08:29:50.011Z,50.25
2023-09-08T08:32:20.817Z,51.40
2023-09-08T08:34:51.413Z,44.40
2023-09-08T08:37:22.239Z,55.80
2023-09-08T08:39:53.532Z,79.32
2023-09-08T08:42:25.213Z,54.78
2023-09-08T08:44:55.747Z,36.72
2023-09-08T08:47:27.828Z,33.40
2023-09-08T08:50:03.487Z,26.25
2023-09-08T08:52:33.966Z,17.83
2023-09-08T08:55:04.531Z,26.08
2023-09-08T08:57:36.056Z,14.93
2023-09-08T09:00:15.504Z,12.73
2023-09-08T09:02:53.588Z,13.52
2023-09-08T09:05:31.465Z,11.95
2023-09-08T09:08:06.519Z,11.02
2023-09-08T09:10:37.712Z,14.90
2023-09-08T09:13:08.124Z,13.38
2023-09-08T09:15:39.451Z,9.13
2023-09-08T09:18:10.857Z,10.32
2023-09-08T09:20:43.847Z,5.22
2023-09-08T09:23:17.748Z,6.38
2023-09-08T09:25:48.423Z,4.95
2023-09-08T09:28:19.569Z,7.88
2023-09-08T09:30:53.698Z,4.70
2023-09-08T09:33:25.317Z,3.97
2023-09-08T09:35:57.473Z,4.40
2023-09-08T09:38:30.003Z,4.72
2023-09-08T09:41:01.099Z,4.47
2023-09-08T09:43:32.469Z,47.47
2023-09-08T09:46:03.147Z,110.10
2023-09-08T09:48:34.387Z,72.85
2023-09-08T09:51:22.237Z,69.22
2023-09-08T09:53:57.594Z,64.68
2023-09-08T09:59:00.251Z,32.72
2023-09-08T10:01:32.379Z,10.52
2023-09-08T10:04:06.023Z,5.47
2023-09-08T10:06:43.180Z,6.95
2023-09-08T10:09:19.253Z,5.47
2023-09-08T10:11:55.606Z,3.38
2023-09-08T10:14:29.663Z,5.05
2023-09-08T10:17:04.025Z,4.10
2023-09-08T10:22:15.234Z,4.38
2023-09-08T10:24:49.500Z,5.05
2023-09-08T10:27:23.586Z,6.05
2023-09-08T10:29:54.876Z,3.83
2023-09-08T10:32:25.541Z,39.10
2023-09-08T10:34:56.748Z,71.50
2023-09-08T10:37:33.056Z,76.75
2023-09-08T10:40:39.619Z,65.63
2023-09-08T10:45:43.849Z,7.07
2023-09-08T10:48:15.906Z,4.13
2023-09-08T10:50:48.245Z,4.93
2023-09-08T10:53:22.967Z,4.05
2023-09-08T10:58:41.057Z,3.10
2023-09-08T11:01:18.368Z,90.70
2023-09-08T11:03:52.749Z,109.75
2023-09-08T11:06:24.964Z,91.35
2023-09-08T11:08:57.867Z,22.98
2023-09-08T11:11:29.180Z,20.15
2023-09-08T11:14:02.154Z,6.88
2023-09-08T11:16:35.765Z,4.80
2023-09-08T11:19:08.843Z,87.00
2023-09-08T11:21:42.318Z,111.60
2023-09-08T11:24:17.070Z,41.92
2023-09-08T11:26:49.630Z,46.67
2023-09-08T11:29:21.483Z,94.50
2023-09-08T11:31:57.158Z,130.68
2023-09-08T11:34:27.860Z,156.07
2023-09-08T11:36:59.747Z,127.40
2023-09-08T11:39:30.714Z,117.53
2023-09-08T11:42:03.707Z,120.63
2023-09-08T11:44:36.219Z,105.10
2023-09-08T11:47:11.609Z,101.30
2023-09-08T11:49:44.044Z,119.95
2023-09-08T11:52:14.400Z,171.95
2023-09-08T11:55:00.199Z,146.52
2023-09-08T11:57:37.094Z,200.88
2023-09-08T12:00:09.656Z,168.55
2023-09-08T12:02:41.336Z,146.05
2023-09-08T12:05:16.692Z,158.40
2023-09-08T12:07:47.620Z,136.35
2023-09-08T12:10:17.786Z,144.73
2023-09-08T12:12:59.434Z,144.05
2023-09-08T12:15:48.290Z,135.68
2023-09-08T12:18:21.053Z,127.15
2023-09-08T12:21:11.324Z,170.10
2023-09-08T12:24:00.052Z,172.73
2023-09-08T12:26:33.432Z,151.73
2023-09-08T12:29:07.262Z,102.32
2023-09-08T12:31:38.056Z,83.90
2023-09-08T12:34:11.671Z,72.63
2023-09-08T12:36:48.817Z,77.65
2023-09-08T12:39:19.187Z,80.72
2023-09-08T12:41:49.128Z,81.95
2023-09-08T12:44:20.194Z,70.13
2023-09-08T12:46:50.345Z,60.13
2023-09-08T12:49:21.204Z,62.28
2023-09-08T12:51:51.488Z,53.83
2023-09-08T12:54:21.736Z,37.08
2023-09-08T12:56:53.501Z,31.73
2023-09-08T12:59:24.025Z,33.38
2023-09-08T13:01:54.259Z,17.20
2023-09-08T13:04:25.411Z,9.98
2023-09-08T13:06:55.721Z,7.65
2023-09-08T13:09:26.992Z,7.28
2023-09-08T13:12:00.473Z,3.83
2023-09-08T13:14:31.864Z,6.35
2023-09-08T13:17:02.934Z,5.90
2023-09-08T13:19:34.976Z,3.95
2023-09-08T13:22:05.415Z,8.00
2023-09-08T13:24:37.949Z,10.82
2023-09-08T13:27:09.138Z,13.88
2023-09-08T13:29:39.459Z,13.25
2023-09-08T13:32:11.308Z,14.68
2023-09-08T13:34:41.680Z,181.43
2023-09-08T13:37:12.555Z,200.93
2023-09-08T13:39:43.276Z,265.02
2023-09-08T13:42:14.687Z,251.57
2023-09-08T13:44:45.928Z,238.25
2023-09-08T13:47:16.709Z,227.38
2023-09-08T13:49:47.825Z,234.95
2023-09-08T13:52:19.757Z,211.32
2023-09-08T13:55:06.586Z,194.88
2023-09-08T13:57:43.933Z,188.43
2023-09-08T14:00:17.401Z,165.95
2023-09-08T14:02:51.189Z,141.65
2023-09-08T14:05:28.283Z,106.47
2023-09-08T14:08:07.374Z,129.27
2023-09-08T14:10:51.187Z,132.82
2023-09-08T14:13:24.115Z,93.57
2023-09-08T14:15:55.865Z,112.53
2023-09-08T14:18:26.519Z,108.82
2023-09-08T14:20:57.418Z,129.52
2023-09-08T14:23:29.384Z,130.40
2023-09-08T14:26:00.361Z,136.00
2023-09-08T14:28:31.389Z,135.00
2023-09-08T14:31:02.763Z,129.50
2023-09-08T14:33:37.171Z,145.68
2023-09-08T14:36:08.145Z,133.07
2023-09-08T14:38:38.857Z,170.23
2023-09-08T14:41:09.385Z,133.95
2023-09-08T14:43:40.914Z,150.13
2023-09-08T14:46:12.765Z,129.00
2023-09-08T14:48:43.759Z,92.85
2023-09-08T14:51:15.502Z,148.88
2023-09-08T14:53:46.592Z,115.20
2023-09-08T14:56:16.642Z,81.70
2023-09-08T14:58:47.054Z,116.53
2023-09-08T15:01:18.011Z,134.00
2023-09-08T15:03:48.513Z,111.35
2023-09-08T15:06:19.097Z,143.55
2023-09-08T15:08:50.701Z,114.78
2023-09-08T15:11:21.204Z,122.90
2023-09-08T15:13:52.845Z,111.32
2023-09-08T15:16:25.869Z,129.02
2023-09-08T15:18:58.233Z,144.07
2023-09-08T15:21:32.595Z,85.00
2023-09-08T15:24:04.975Z,138.80
2023-09-08T15:26:36.235Z,114.75
2023-09-08T15:29:07.888Z,124.35
2023-09-08T15:31:40.273Z,141.15
2023-09-08T15:34:12.261Z,118.68
2023-09-08T15:36:43.474Z,97.57
2023-09-08T15:39:15.207Z,89.10
2023-09-08T15:41:49.275Z,111.57
2023-09-08T15:44:22.600Z,79.60
2023-09-08T15:46:55.771Z,82.10
2023-09-08T15:49:26.398Z,88.22
2023-09-08T15:52:13.506Z,120.03
2023-09-08T15:54:46.963Z,74.85
2023-09-08T15:57:17.653Z,107.43
2023-09-08T15:59:49.017Z,61.05
2023-09-08T16:02:19.851Z,150.65
2023-09-08T16:04:50.600Z,161.50
2023-09-08T16:07:22.250Z,162.60
2023-09-08T16:09:53.329Z,177.50
2023-09-08T16:12:24.399Z,188.63
2023-09-08T16:14:55.155Z,210.07
2023-09-08T16:17:28.042Z,160.57
2023-09-08T16:19:58.486Z,79.38
2023-09-08T16:22:29.247Z,150.60
2023-09-08T16:25:00.568Z,148.98
2023-09-08T16:27:32.381Z,79.40
2023-09-08T16:30:03.587Z,115.90
2023-09-08T16:32:34.528Z,88.97
2023-09-08T16:35:04.892Z,186.07
2023-09-08T16:37:35.674Z,217.25
2023-09-08T16:40:05.978Z,127.13
2023-09-08T16:42:37.529Z,177.73
2023-09-08T16:45:09.176Z,208.48
2023-09-08T16:47:41.760Z,201.85
2023-09-08T16:50:13.237Z,189.23
2023-09-08T16:52:44.168Z,206.68
2023-09-08T16:55:15.030Z,211.32
2023-09-08T16:57:48.448Z,251.93
2023-09-08T17:00:19.529Z,171.35
2023-09-08T17:02:50.441Z,281.65
2023-09-08T17:05:20.682Z,174.27
2023-09-08T17:07:54.614Z,188.07
2023-09-08T17:10:25.707Z,250.98
2023-09-08T17:12:57.360Z,311.85
2023-09-08T17:15:29.144Z,185.55
2023-09-08T17:18:00.722Z,174.60
2023-09-08T17:20:33.606Z,197.07
2023-09-08T17:23:05.459Z,208.52
2023-09-08T17:25:36.046Z,194.95
2023-09-08T17:28:06.940Z,99.93
2023-09-08T17:30:37.355Z,93.85
2023-09-08T17:33:07.903Z,188.63
2023-09-08T17:35:39.758Z,117.03
2023-09-08T17:38:13.466Z,67.50
2023-09-08T17:40:44.299Z,95.05
2023-09-08T17:43:15.030Z,64.72
2023-09-08T17:45:47.823Z,71.53
2023-09-08T17:48:18.446Z,98.07
2023-09-08T17:50:51.092Z,101.47
2023-09-08T17:53:22.725Z,98.32
2023-09-08T17:55:55.490Z,73.93
2023-09-08T17:58:26.065Z,109.13
2023-09-08T18:00:57.416Z,76.75
2023-09-08T18:03:29.938Z,38.30
2023-09-08T18:06:00.756Z,39.80
2023-09-08T18:08:32.190Z,60.05
2023-09-08T18:11:08.675Z,50.33
2023-09-08T18:13:42.079Z,59.15
2023-09-08T18:16:13.017Z,81.93
2023-09-08T18:18:45.363Z,77.68
2023-09-08T18:21:17.157Z,57.95
2023-09-08T18:23:49.717Z,76.25
2023-09-08T18:26:21.033Z,53.60
2023-09-08T18:28:52.297Z,62.42
2023-09-08T18:31:24.847Z,60.53
2023-09-08T18:33:56.584Z,38.05
2023-09-08T18:36:28.077Z,70.38
2023-09-08T18:38:59.798Z,74.28
2023-09-08T18:41:30.771Z,81.47
2023-09-08T18:44:03.171Z,75.80
2023-09-08T18:46:34.101Z,70.38
2023-09-08T18:49:05.829Z,103.13
2023-09-08T18:51:36.520Z,107.63
2023-09-08T18:54:07.053Z,98.70
2023-09-08T18:56:39.857Z,112.22
2023-09-08T18:59:10.363Z,101.25
2023-09-08T19:01:41.193Z,92.53
2023-09-08T19:04:11.821Z,112.05
2023-09-08T19:06:42.155Z,92.43
2023-09-08T19:09:12.790Z,40.92
2023-09-08T19:11:43.179Z,77.50
2023-09-08T19:14:13.670Z,69.10
2023-09-08T19:16:45.502Z,67.50
2023-09-08T19:19:16.308Z,89.35
2023-09-08T19:21:46.403Z,72.95
2023-09-08T19:24:18.405Z,79.55
2023-09-08T19:26:48.974Z,98.68
2023-09-08T19:29:21.504Z,75.30
2023-09-08T19:31:53.066Z,83.53
2023-09-08T19:34:23.650Z,85.47
2023-09-08T19:36:56.957Z,66.43
2023-09-08T19:39:27.428Z,88.65
2023-09-08T19:41:59.056Z,93.80
2023-09-08T19:44:30.224Z,81.10
2023-09-08T19:47:01.204Z,51.67
2023-09-08T19:49:31.978Z,84.28
2023-09-08T19:52:02.583Z,52.03
2023-09-08T19:54:32.903Z,58.10
2023-09-08T19:57:03.487Z,94.10
2023-09-08T19:59:34.015Z,76.15
2023-09-08T20:02:04.829Z,98.35
2023-09-08T20:04:35.620Z,77.43
2023-09-08T20:07:06.710Z,63.45
2023-09-08T20:09:37.291Z,71.60
2023-09-08T20:12:07.718Z,77.85
2023-09-08T20:14:38.328Z,84.25
2023-09-08T20:17:08.840Z,40.63
2023-09-08T20:19:40.135Z,55.90
2023-09-08T20:22:11.062Z,61.92
2023-09-08T20:24:44.414Z,72.00
2023-09-08T20:27:15.057Z,76.88
2023-09-08T20:29:46.422Z,59.33
2023-09-08T20:32:16.811Z,71.03
2023-09-08T20:34:48.631Z,61.13
2023-09-08T20:37:19.884Z,80.45
2023-09-08T20:39:50.728Z,88.80
2023-09-08T20:42:22.338Z,75.07
2023-09-08T20:44:53.777Z,74.30
2023-09-08T20:47:24.845Z,66.20
2023-09-08T20:49:57.714Z,65.75
2023-09-08T20:52:28.466Z,70.00
2023-09-08T20:54:58.608Z,80.03
2023-09-08T20:57:29.613Z,74.03
2023-09-08T21:00:00.193Z,93.70
2023-09-08T21:02:30.640Z,64.03
2023-09-08T21:05:01.299Z,72.53
2023-09-08T21:07:31.852Z,89.43
2023-09-08T21:10:02.689Z,74.20
2023-09-08T21:12:33.075Z,86.85
2023-09-08T21:15:04.091Z,99.70
2023-09-08T21:17:34.750Z,81.25
2023-09-08T21:20:06.757Z,106.55
2023-09-08T21:22:38.432Z,124.30
2023-09-08T21:25:10.382Z,118.03
2023-09-08T21:27:41.808Z,105.47
2023-09-08T21:30:12.705Z,118.72
2023-09-08T21:32:43.740Z,104.22
2023-09-08T21:35:14.150Z,73.85
2023-09-08T21:37:44.532Z,49.45
2023-09-08T21:40:15.544Z,40.13
2023-09-08T21:42:46.945Z,35.13
2023-09-08T21:45:18.258Z,34.15
2023-09-08T21:47:52.945Z,27.85
2023-09-08T21:50:24.815Z,22.33
2023-09-08T21:52:55.915Z,25.08
2023-09-08T21:55:28.003Z,36.63
2023-09-08T21:57:58.648Z,68.10
2023-09-08T22:00:30.060Z,211.63
2023-09-08T22:03:01.007Z,182.98
2023-09-08T22:05:31.558Z,156.52
2023-09-08T22:08:02.675Z,155.77
2023-09-08T22:10:33.057Z,117.43
2023-09-08T22:13:03.445Z,80.05
2023-09-08T22:15:33.870Z,32.78
2023-09-08T22:18:05.593Z,26.95
2023-09-08T22:20:36.163Z,226.52
2023-09-08T22:23:06.944Z,220.05
2023-09-08T22:25:37.439Z,172.63
2023-09-08T22:28:09.731Z,177.13
2023-09-08T22:30:40.846Z,171.93
2023-09-08T22:33:11.843Z,146.02
2023-09-08T22:35:43.350Z,129.80
2023-09-08T22:38:13.969Z,182.90
2023-09-08T22:40:44.327Z,142.27
2023-09-08T22:43:14.444Z,148.02
2023-09-08T22:45:45.535Z,140.32
2023-09-08T22:48:17.230Z,137.45
2023-09-08T22:50:48.887Z,173.38
2023-09-08T22:53:20.569Z,153.07
2023-09-08T22:55:51.921Z,180.80
2023-09-08T22:58:23.061Z,158.43
2023-09-08T23:00:54.150Z,186.55
2023-09-08T23:03:25.972Z,184.73
2023-09-08T23:05:57.446Z,143.57
2023-09-08T23:08:28.320Z,106.57
2023-09-08T23:11:00.530Z,125.68
2023-09-08T23:13:31.324Z,105.45
2023-09-08T23:16:01.948Z,131.95
2023-09-08T23:18:32.750Z,74.68
2023-09-08T23:21:04.083Z,79.25
2023-09-08T23:23:37.081Z,65.28
2023-09-08T23:26:07.849Z,41.28
2023-09-08T23:28:39.234Z,21.55
2023-09-08T23:31:10.714Z,24.52
2023-09-08T23:33:42.234Z,57.40
2023-09-08T23:36:12.816Z,41.17
2023-09-08T23:38:43.770Z,29.02
2023-09-08T23:41:14.684Z,54.10
2023-09-08T23:43:44.962Z,114.95
2023-09-08T23:46:15.674Z,97.45
2023-09-08T23:48:46.461Z,81.15
2023-09-08T23:51:18.482Z,63.45
2023-09-08T23:53:49.598Z,79.03
2023-09-08T23:56:23.662Z,73.07
2023-09-08T23:58:54.226Z,81.72
